sensor_id;sensor_type;location;lat;lon;timestamp;pressure;altitude;pressure_sealevel;temperature;humidity
59367;BME280;45163;47.690;11.770;2023-02-13T00:01:37;95007.38;;;-3.55;100.00
59367;BME280;45163;47.690;11.770;2023-02-13T00:04:03;95005.06;;;-3.47;100.00
59367;BME280;45163;47.690;11.770;2023-02-13T00:06:29;94999.44;;;-3.46;100.00
59367;BME280;45163;47.690;11.770;2023-02-13T00:08:55;94993.41;;;-3.52;100.00
59367;BME280;45163;47.690;11.770;2023-02-13T00:11:21;94992.94;;;-3.54;100.00
59367;BME280;45163;47.690;11.770;2023-02-13T00:13:47;94984.34;;;-3.51;100.00
59367;BME280;45163;47.690;11.770;2023-02-13T00:16:13;94987.59;;;-3.54;100.00
59367;BME280;45163;47.690;11.770;2023-02-13T00:18:39;94978.50;;;-3.53;100.00
59367;BME280;45163;47.690;11.770;2023-02-13T00:21:08;94979.00;;;-3.51;100.00
59367;BME280;45163;47.690;11.770;2023-02-13T00:23:36;94972.38;;;-3.53;100.00
59367;BME280;45163;47.690;11.770;2023-02-13T00:26:09;94979.09;;;-3.56;100.00
59367;BME280;45163;47.690;11.770;2023-02-13T00:28:36;94966.25;;;-3.54;100.00
59367;BME280;45163;47.690;11.770;2023-02-13T00:31:11;94965.66;;;-3.51;100.00
59367;BME280;45163;47.690;11.770;2023-02-13T00:33:37;94962.06;;;-3.46;100.00
59367;BME280;45163;47.690;11.770;2023-02-13T00:36:22;94967.31;;;-3.32;100.00
59367;BME280;45163;47.690;11.770;2023-02-13T00:38:49;94967.47;;;-3.37;100.00
59367;BME280;45163;47.690;11.770;2023-02-13T00:41:15;94963.81;;;-3.41;100.00
59367;BME280;45163;47.690;11.770;2023-02-13T00:43:43;94963.16;;;-3.47;100.00
59367;BME280;45163;47.690;11.770;2023-02-13T00:46:09;94963.31;;;-3.43;100.00
59367;BME280;45163;47.690;11.770;2023-02-13T00:48:35;94961.56;;;-3.48;100.00
59367;BME280;45163;47.690;11.770;2023-02-13T00:51:02;94966.63;;;-3.46;100.00
59367;BME280;45163;47.690;11.770;2023-02-13T00:53:28;94962.66;;;-3.49;100.00
59367;BME280;45163;47.690;11.770;2023-02-13T00:55:55;94965.47;;;-3.54;100.00
59367;BME280;45163;47.690;11.770;2023-02-13T00:58:21;94978.03;;;-3.55;100.00
59367;BME280;45163;47.690;11.770;2023-02-13T01:00:48;94978.13;;;-3.60;100.00
59367;BME280;45163;47.690;11.770;2023-02-13T01:03:15;94974.38;;;-3.59;100.00
59367;BME280;45163;47.690;11.770;2023-02-13T01:05:42;94970.94;;;-3.59;100.00
59367;BME280;45163;47.690;11.770;2023-02-13T01:08:09;94974.22;;;-3.62;100.00
59367;BME280;45163;47.690;11.770;2023-02-13T01:10:37;94970.63;;;-3.58;100.00
59367;BME280;45163;47.690;11.770;2023-02-13T01:13:03;94967.63;;;-3.56;100.00
59367;BME280;45163;47.690;11.770;2023-02-13T01:15:29;94964.97;;;-3.56;100.00
59367;BME280;45163;47.690;11.770;2023-02-13T01:17:55;94960.13;;;-3.54;100.00
59367;BME280;45163;47.690;11.770;2023-02-13T01:20:23;94954.63;;;-3.58;100.00
59367;BME280;45163;47.690;11.770;2023-02-13T01:22:49;94958.66;;;-3.60;100.00
59367;BME280;45163;47.690;11.770;2023-02-13T01:25:15;94953.66;;;-3.62;100.00
59367;BME280;45163;47.690;11.770;2023-02-13T01:27:42;94953.47;;;-3.65;100.00
59367;BME280;45163;47.690;11.770;2023-02-13T01:30:10;94949.22;;;-3.66;100.00
59367;BME280;45163;47.690;11.770;2023-02-13T01:32:43;94949.88;;;-3.61;100.00
59367;BME280;45163;47.690;11.770;2023-02-13T01:35:10;94946.59;;;-3.58;100.00
59367;BME280;45163;47.690;11.770;2023-02-13T01:37:36;94941.59;;;-3.59;100.00
59367;BME280;45163;47.690;11.770;2023-02-13T01:40:05;94942.38;;;-3.59;100.00
59367;BME280;45163;47.690;11.770;2023-02-13T01:42:33;94936.25;;;-3.59;100.00
59367;BME280;45163;47.690;11.770;2023-02-13T01:45:05;94936.84;;;-3.62;100.00
59367;BME280;45163;47.690;11.770;2023-02-13T01:47:39;94928.66;;;-3.66;100.00
59367;BME280;45163;47.690;11.770;2023-02-13T01:50:18;94936.97;;;-3.67;100.00
59367;BME280;45163;47.690;11.770;2023-02-13T01:52:58;94933.34;;;-3.71;100.00
59367;BME280;45163;47.690;11.770;2023-02-13T01:55:25;94936.94;;;-3.76;100.00
59367;BME280;45163;47.690;11.770;2023-02-13T01:57:57;94926.25;;;-3.76;100.00
59367;BME280;45163;47.690;11.770;2023-02-13T02:00:25;94934.25;;;-3.76;100.00
59367;BME280;45163;47.690;11.770;2023-02-13T02:02:59;94924.66;;;-3.77;100.00
59367;BME280;45163;47.690;11.770;2023-02-13T02:05:29;94922.00;;;-3.77;100.00
59367;BME280;45163;47.690;11.770;2023-02-13T02:07:57;94929.22;;;-3.78;100.00
59367;BME280;45163;47.690;11.770;2023-02-13T02:10:24;94930.44;;;-3.84;100.00
59367;BME280;45163;47.690;11.770;2023-02-13T02:15:31;94932.72;;;-3.91;100.00
59367;BME280;45163;47.690;11.770;2023-02-13T02:17:58;94935.38;;;-3.91;100.00
59367;BME280;45163;47.690;11.770;2023-02-13T02:28:43;94942.03;;;-4.02;100.00
59367;BME280;45163;47.690;11.770;2023-02-13T02:51:02;94964.72;;;-4.13;100.00
59367;BME280;45163;47.690;11.770;2023-02-13T02:53:45;94972.78;;;-4.05;100.00
59367;BME280;45163;47.690;11.770;2023-02-13T03:01:39;94977.72;;;-3.76;100.00
59367;BME280;45163;47.690;11.770;2023-02-13T03:04:32;94982.69;;;-3.60;100.00
59367;BME280;45163;47.690;11.770;2023-02-13T03:07:18;94985.13;;;-3.50;100.00
59367;BME280;45163;47.690;11.770;2023-02-13T03:09:51;94985.97;;;-3.41;100.00
59367;BME280;45163;47.690;11.770;2023-02-13T03:12:40;94985.81;;;-3.36;100.00
59367;BME280;45163;47.690;11.770;2023-02-13T03:15:27;94993.41;;;-3.29;100.00
59367;BME280;45163;47.690;11.770;2023-02-13T03:17:54;94988.13;;;-3.20;100.00
59367;BME280;45163;47.690;11.770;2023-02-13T03:21:07;94987.69;;;-3.14;100.00
59367;BME280;45163;47.690;11.770;2023-02-13T03:32:15;94986.50;;;-3.30;100.00
59367;BME280;45163;47.690;11.770;2023-02-13T03:34:53;94985.69;;;-3.31;100.00
59367;BME280;45163;47.690;11.770;2023-02-13T03:37:45;94984.19;;;-3.23;100.00
59367;BME280;45163;47.690;11.770;2023-02-13T03:40:28;94972.25;;;-3.26;100.00
59367;BME280;45163;47.690;11.770;2023-02-13T03:45:32;94982.25;;;-3.31;100.00
59367;BME280;45163;47.690;11.770;2023-02-13T03:48:24;94975.19;;;-3.27;100.00
59367;BME280;45163;47.690;11.770;2023-02-13T03:51:36;94978.66;;;-3.27;100.00
59367;BME280;45163;47.690;11.770;2023-02-13T03:54:07;94973.16;;;-3.30;100.00
59367;BME280;45163;47.690;11.770;2023-02-13T03:56:39;94976.13;;;-3.32;100.00
59367;BME280;45163;47.690;11.770;2023-02-13T03:59:29;94980.63;;;-3.41;100.00
59367;BME280;45163;47.690;11.770;2023-02-13T04:07:20;94987.41;;;-3.57;100.00
59367;BME280;45163;47.690;11.770;2023-02-13T04:10:16;94982.03;;;-3.66;100.00
59367;BME280;45163;47.690;11.770;2023-02-13T04:15:37;94991.06;;;-3.76;100.00
59367;BME280;45163;47.690;11.770;2023-02-13T04:18:22;94985.75;;;-3.89;100.00
59367;BME280;45163;47.690;11.770;2023-02-13T04:20:49;94997.53;;;-3.90;100.00
59367;BME280;45163;47.690;11.770;2023-02-13T04:23:16;94996.53;;;-3.94;100.00
59367;BME280;45163;47.690;11.770;2023-02-13T04:25:46;94996.47;;;-4.03;100.00
59367;BME280;45163;47.690;11.770;2023-02-13T04:28:13;94996.88;;;-4.10;100.00
59367;BME280;45163;47.690;11.770;2023-02-13T04:30:39;95002.94;;;-4.18;100.00
59367;BME280;45163;47.690;11.770;2023-02-13T04:33:05;95000.88;;;-4.21;100.00
59367;BME280;45163;47.690;11.770;2023-02-13T04:35:31;94995.53;;;-4.21;100.00
59367;BME280;45163;47.690;11.770;2023-02-13T04:37:57;94995.03;;;-4.23;100.00
59367;BME280;45163;47.690;11.770;2023-02-13T04:40:23;94995.72;;;-4.31;100.00
59367;BME280;45163;47.690;11.770;2023-02-13T04:42:49;94996.72;;;-4.27;100.00
59367;BME280;45163;47.690;11.770;2023-02-13T04:45:15;95002.03;;;-4.27;100.00
59367;BME280;45163;47.690;11.770;2023-02-13T04:47:42;94996.94;;;-4.37;100.00
59367;BME280;45163;47.690;11.770;2023-02-13T04:50:08;95003.94;;;-4.41;100.00
59367;BME280;45163;47.690;11.770;2023-02-13T04:52:34;94997.25;;;-4.39;100.00
59367;BME280;45163;47.690;11.770;2023-02-13T04:55:00;95003.06;;;-4.37;100.00
59367;BME280;45163;47.690;11.770;2023-02-13T04:57:26;95000.09;;;-4.35;100.00
59367;BME280;45163;47.690;11.770;2023-02-13T04:59:52;94993.59;;;-4.43;100.00
59367;BME280;45163;47.690;11.770;2023-02-13T05:02:18;94991.72;;;-4.42;100.00
59367;BME280;45163;47.690;11.770;2023-02-13T05:04:44;94990.63;;;-4.41;100.00
59367;BME280;45163;47.690;11.770;2023-02-13T05:07:10;94995.38;;;-4.38;100.00
59367;BME280;45163;47.690;11.770;2023-02-13T05:09:36;94995.19;;;-4.42;100.00
59367;BME280;45163;47.690;11.770;2023-02-13T05:12:02;94989.94;;;-4.47;100.00
59367;BME280;45163;47.690;11.770;2023-02-13T05:14:28;94993.22;;;-4.50;100.00
59367;BME280;45163;47.690;11.770;2023-02-13T05:16:54;94990.66;;;-4.55;100.00
59367;BME280;45163;47.690;11.770;2023-02-13T05:19:20;94990.94;;;-4.57;100.00
59367;BME280;45163;47.690;11.770;2023-02-13T05:21:46;94990.44;;;-4.59;100.00
59367;BME280;45163;47.690;11.770;2023-02-13T05:24:30;94991.53;;;-4.60;100.00
59367;BME280;45163;47.690;11.770;2023-02-13T05:26:56;94989.06;;;-4.56;100.00
59367;BME280;45163;47.690;11.770;2023-02-13T05:29:22;94988.25;;;-4.57;100.00
59367;BME280;45163;47.690;11.770;2023-02-13T05:31:53;94994.50;;;-4.61;100.00
59367;BME280;45163;47.690;11.770;2023-02-13T05:34:20;94994.78;;;-4.63;100.00
59367;BME280;45163;47.690;11.770;2023-02-13T05:36:46;94988.88;;;-4.60;100.00
59367;BME280;45163;47.690;11.770;2023-02-13T05:39:13;94983.16;;;-4.67;100.00
59367;BME280;45163;47.690;11.770;2023-02-13T05:41:43;94986.59;;;-4.66;100.00
59367;BME280;45163;47.690;11.770;2023-02-13T05:44:10;94988.88;;;-4.60;100.00
59367;BME280;45163;47.690;11.770;2023-02-13T05:46:38;94988.56;;;-4.58;100.00
59367;BME280;45163;47.690;11.770;2023-02-13T05:49:05;94992.81;;;-4.71;100.00
59367;BME280;45163;47.690;11.770;2023-02-13T05:51:32;94984.63;;;-4.74;100.00
59367;BME280;45163;47.690;11.770;2023-02-13T05:53:58;94985.72;;;-4.76;100.00
59367;BME280;45163;47.690;11.770;2023-02-13T05:56:24;94985.41;;;-4.74;100.00
59367;BME280;45163;47.690;11.770;2023-02-13T05:58:51;94991.72;;;-4.70;100.00
59367;BME280;45163;47.690;11.770;2023-02-13T06:01:18;94990.84;;;-4.65;100.00
59367;BME280;45163;47.690;11.770;2023-02-13T06:03:44;94984.03;;;-4.58;100.00
59367;BME280;45163;47.690;11.770;2023-02-13T06:06:10;94991.13;;;-4.53;100.00
59367;BME280;45163;47.690;11.770;2023-02-13T06:08:36;94992.22;;;-4.54;100.00
59367;BME280;45163;47.690;11.770;2023-02-13T06:11:03;94993.00;;;-4.54;100.00
59367;BME280;45163;47.690;11.770;2023-02-13T06:13:29;94993.00;;;-4.54;100.00
59367;BME280;45163;47.690;11.770;2023-02-13T06:15:55;94998.03;;;-4.52;100.00
59367;BME280;45163;47.690;11.770;2023-02-13T06:18:21;94994.38;;;-4.42;100.00
59367;BME280;45163;47.690;11.770;2023-02-13T06:20:47;94988.47;;;-4.53;100.00
59367;BME280;45163;47.690;11.770;2023-02-13T06:23:14;94997.25;;;-4.53;100.00
59367;BME280;45163;47.690;11.770;2023-02-13T06:25:40;94994.59;;;-4.39;100.00
59367;BME280;45163;47.690;11.770;2023-02-13T06:28:06;95001.38;;;-4.33;100.00
59367;BME280;45163;47.690;11.770;2023-02-13T06:30:32;95007.81;;;-4.34;100.00
59367;BME280;45163;47.690;11.770;2023-02-13T06:32:58;94998.50;;;-4.36;100.00
59367;BME280;45163;47.690;11.770;2023-02-13T06:35:25;95000.88;;;-4.35;100.00
59367;BME280;45163;47.690;11.770;2023-02-13T06:37:52;95004.44;;;-4.26;100.00
59367;BME280;45163;47.690;11.770;2023-02-13T06:40:18;95009.97;;;-4.22;100.00
59367;BME280;45163;47.690;11.770;2023-02-13T06:42:44;95014.97;;;-4.20;100.00
59367;BME280;45163;47.690;11.770;2023-02-13T06:45:11;95013.09;;;-4.20;100.00
59367;BME280;45163;47.690;11.770;2023-02-13T06:47:42;95012.00;;;-4.19;100.00
59367;BME280;45163;47.690;11.770;2023-02-13T06:50:09;95011.91;;;-4.14;100.00
59367;BME280;45163;47.690;11.770;2023-02-13T06:52:35;95023.38;;;-4.13;100.00
59367;BME280;45163;47.690;11.770;2023-02-13T06:55:02;95012.72;;;-4.27;100.00
59367;BME280;45163;47.690;11.770;2023-02-13T06:57:30;95013.59;;;-4.18;100.00
59367;BME280;45163;47.690;11.770;2023-02-13T06:59:59;95013.13;;;-3.61;100.00
59367;BME280;45163;47.690;11.770;2023-02-13T07:02:25;95020.06;;;-3.38;100.00
59367;BME280;45163;47.690;11.770;2023-02-13T07:04:51;95029.66;;;-3.59;100.00
59367;BME280;45163;47.690;11.770;2023-02-13T07:07:16;95034.81;;;-3.77;100.00
59367;BME280;45163;47.690;11.770;2023-02-13T07:09:42;95025.06;;;-3.81;100.00
59367;BME280;45163;47.690;11.770;2023-02-13T07:12:08;95030.19;;;-3.85;100.00
59367;BME280;45163;47.690;11.770;2023-02-13T07:14:34;95030.38;;;-3.81;100.00
59367;BME280;45163;47.690;11.770;2023-02-13T07:17:00;95033.81;;;-3.44;100.00
59367;BME280;45163;47.690;11.770;2023-02-13T07:19:26;95033.94;;;-2.73;100.00
59367;BME280;45163;47.690;11.770;2023-02-13T07:21:52;95037.16;;;-1.97;100.00
59367;BME280;45163;47.690;11.770;2023-02-13T07:24:18;95039.88;;;-1.36;100.00
59367;BME280;45163;47.690;11.770;2023-02-13T07:26:44;95046.16;;;-0.51;100.00
59367;BME280;45163;47.690;11.770;2023-02-13T07:29:10;95044.63;;;-0.22;100.00
59367;BME280;45163;47.690;11.770;2023-02-13T07:31:36;95044.19;;;0.06;100.00
59367;BME280;45163;47.690;11.770;2023-02-13T07:34:02;95053.41;;;0.46;100.00
59367;BME280;45163;47.690;11.770;2023-02-13T07:36:28;95053.50;;;0.50;100.00
59367;BME280;45163;47.690;11.770;2023-02-13T07:38:54;95059.03;;;0.54;100.00
59367;BME280;45163;47.690;11.770;2023-02-13T07:41:20;95058.56;;;0.52;100.00
59367;BME280;45163;47.690;11.770;2023-02-13T07:43:46;95052.34;;;0.60;100.00
59367;BME280;45163;47.690;11.770;2023-02-13T07:46:12;95055.25;;;0.55;100.00
59367;BME280;45163;47.690;11.770;2023-02-13T07:48:38;95062.38;;;0.51;100.00
59367;BME280;45163;47.690;11.770;2023-02-13T07:51:04;95061.97;;;0.40;100.00
59367;BME280;45163;47.690;11.770;2023-02-13T07:53:31;95056.47;;;0.57;100.00
59367;BME280;45163;47.690;11.770;2023-02-13T07:55:57;95059.34;;;0.31;100.00
59367;BME280;45163;47.690;11.770;2023-02-13T07:58:23;95062.19;;;0.56;100.00
59367;BME280;45163;47.690;11.770;2023-02-13T08:00:49;95058.84;;;0.59;100.00
59367;BME280;45163;47.690;11.770;2023-02-13T08:03:15;95060.56;;;0.63;100.00
59367;BME280;45163;47.690;11.770;2023-02-13T08:05:41;95065.00;;;0.38;100.00
59367;BME280;45163;47.690;11.770;2023-02-13T08:08:07;95060.19;;;0.23;100.00
59367;BME280;45163;47.690;11.770;2023-02-13T08:10:33;95066.44;;;0.06;100.00
59367;BME280;45163;47.690;11.770;2023-02-13T08:13:18;95070.16;;;0.22;100.00
59367;BME280;45163;47.690;11.770;2023-02-13T08:15:44;95071.16;;;0.60;100.00
59367;BME280;45163;47.690;11.770;2023-02-13T08:18:10;95074.16;;;0.37;100.00
59367;BME280;45163;47.690;11.770;2023-02-13T08:20:36;95068.38;;;0.27;100.00
59367;BME280;45163;47.690;11.770;2023-02-13T08:23:06;95079.03;;;0.65;100.00
59367;BME280;45163;47.690;11.770;2023-02-13T08:25:34;95070.09;;;0.94;100.00
59367;BME280;45163;47.690;11.770;2023-02-13T08:28:00;95070.16;;;1.39;100.00
59367;BME280;45163;47.690;11.770;2023-02-13T08:30:26;95062.81;;;1.73;100.00
59367;BME280;45163;47.690;11.770;2023-02-13T08:32:53;95065.53;;;1.97;100.00
59367;BME280;45163;47.690;11.770;2023-02-13T08:35:20;95055.84;;;2.33;100.00
59367;BME280;45163;47.690;11.770;2023-02-13T08:37:47;95067.97;;;2.39;100.00
59367;BME280;45163;47.690;11.770;2023-02-13T08:40:13;95061.09;;;2.94;100.00
59367;BME280;45163;47.690;11.770;2023-02-13T08:42:39;95055.09;;;3.73;100.00
59367;BME280;45163;47.690;11.770;2023-02-13T08:45:05;95052.72;;;4.35;100.00
59367;BME280;45163;47.690;11.770;2023-02-13T08:47:31;95046.59;;;4.22;100.00
59367;BME280;45163;47.690;11.770;2023-02-13T08:49:57;95043.31;;;4.29;100.00
59367;BME280;45163;47.690;11.770;2023-02-13T08:52:23;95035.34;;;4.71;100.00
59367;BME280;45163;47.690;11.770;2023-02-13T08:54:49;95035.38;;;4.90;100.00
59367;BME280;45163;47.690;11.770;2023-02-13T08:57:15;95039.91;;;5.25;100.00
59367;BME280;45163;47.690;11.770;2023-02-13T08:59:41;95013.53;;;6.10;100.00
59367;BME280;45163;47.690;11.770;2023-02-13T09:02:09;95023.47;;;6.26;100.00
59367;BME280;45163;47.690;11.770;2023-02-13T09:04:36;95025.72;;;6.73;100.00
59367;BME280;45163;47.690;11.770;2023-02-13T09:07:02;95021.47;;;6.22;100.00
59367;BME280;45163;47.690;11.770;2023-02-13T09:09:28;95021.75;;;6.40;100.00
59367;BME280;45163;47.690;11.770;2023-02-13T09:11:54;95022.59;;;7.76;100.00
59367;BME280;45163;47.690;11.770;2023-02-13T09:14:23;95017.47;;;7.67;100.00
59367;BME280;45163;47.690;11.770;2023-02-13T09:16:49;95014.81;;;7.74;100.00
59367;BME280;45163;47.690;11.770;2023-02-13T09:19:15;95006.97;;;8.65;100.00
59367;BME280;45163;47.690;11.770;2023-02-13T09:21:41;95002.97;;;7.96;100.00
59367;BME280;45163;47.690;11.770;2023-02-13T09:24:08;95009.94;;;7.16;100.00
59367;BME280;45163;47.690;11.770;2023-02-13T09:26:34;95003.00;;;6.88;100.00
59367;BME280;45163;47.690;11.770;2023-02-13T09:29:00;95014.03;;;8.21;100.00
59367;BME280;45163;47.690;11.770;2023-02-13T09:31:26;95017.22;;;8.31;100.00
59367;BME280;45163;47.690;11.770;2023-02-13T09:33:53;95017.59;;;7.44;100.00
59367;BME280;45163;47.690;11.770;2023-02-13T09:36:22;95022.88;;;8.08;100.00
59367;BME280;45163;47.690;11.770;2023-02-13T09:38:53;95023.97;;;8.47;100.00
59367;BME280;45163;47.690;11.770;2023-02-13T09:41:40;95017.00;;;9.34;100.00
59367;BME280;45163;47.690;11.770;2023-02-13T09:46:38;95019.72;;;9.27;100.00
59367;BME280;45163;47.690;11.770;2023-02-13T09:49:10;95017.56;;;10.46;100.00
59367;BME280;45163;47.690;11.770;2023-02-13T09:51:37;95020.56;;;10.95;100.00
59367;BME280;45163;47.690;11.770;2023-02-13T09:54:06;95023.63;;;11.18;100.00
59367;BME280;45163;47.690;11.770;2023-02-13T09:57:08;95019.56;;;12.21;100.00
59367;BME280;45163;47.690;11.770;2023-02-13T10:10:51;95022.31;;;11.55;78.14
59367;BME280;45163;47.690;11.770;2023-02-13T10:13:48;95031.09;;;12.92;80.96
59367;BME280;45163;47.690;11.770;2023-02-13T10:16:20;95024.22;;;12.73;69.17
59367;BME280;45163;47.690;11.770;2023-02-13T10:18:51;95021.22;;;13.36;70.31
59367;BME280;45163;47.690;11.770;2023-02-13T10:21:23;95017.75;;;15.90;67.50
59367;BME280;45163;47.690;11.770;2023-02-13T10:23:58;95019.84;;;16.67;56.29
59367;BME280;45163;47.690;11.770;2023-02-13T10:26:31;95013.75;;;16.27;56.89
59367;BME280;45163;47.690;11.770;2023-02-13T10:29:20;95011.09;;;16.40;50.81
59367;BME280;45163;47.690;11.770;2023-02-13T10:32:10;95018.41;;;15.78;48.50
59367;BME280;45163;47.690;11.770;2023-02-13T10:34:45;95014.63;;;16.89;41.41
59367;BME280;45163;47.690;11.770;2023-02-13T10:37:17;95011.03;;;16.76;40.37
59367;BME280;45163;47.690;11.770;2023-02-13T10:39:50;95007.38;;;16.63;43.33
59367;BME280;45163;47.690;11.770;2023-02-13T10:42:28;95000.16;;;15.67;44.06
59367;BME280;45163;47.690;11.770;2023-02-13T10:45:20;95005.31;;;16.34;39.34
59367;BME280;45163;47.690;11.770;2023-02-13T10:48:20;95002.44;;;17.32;39.81
59367;BME280;45163;47.690;11.770;2023-02-13T10:56:26;94988.69;;;17.58;42.41
59367;BME280;45163;47.690;11.770;2023-02-13T11:02:06;94977.41;;;16.81;41.95
59367;BME280;45163;47.690;11.770;2023-02-13T11:04:32;94965.97;;;17.66;38.93
59367;BME280;45163;47.690;11.770;2023-02-13T11:07:00;94969.84;;;16.04;40.68
59367;BME280;45163;47.690;11.770;2023-02-13T11:09:28;94966.50;;;17.49;43.43
59367;BME280;45163;47.690;11.770;2023-02-13T11:11:55;94962.72;;;16.39;41.04
59367;BME280;45163;47.690;11.770;2023-02-13T11:14:23;94958.06;;;17.27;41.98
59367;BME280;45163;47.690;11.770;2023-02-13T11:19:30;94958.94;;;19.77;35.81
59367;BME280;45163;47.690;11.770;2023-02-13T11:22:04;94953.97;;;19.72;33.38
59367;BME280;45163;47.690;11.770;2023-02-13T11:24:31;94954.78;;;19.60;31.66
59367;BME280;45163;47.690;11.770;2023-02-13T11:27:04;94950.88;;;20.01;31.15
59367;BME280;45163;47.690;11.770;2023-02-13T11:29:36;94970.53;;;18.37;33.54
59367;BME280;45163;47.690;11.770;2023-02-13T11:32:20;94964.81;;;17.51;37.64
59367;BME280;45163;47.690;11.770;2023-02-13T11:34:46;94968.50;;;17.74;37.34
59367;BME280;45163;47.690;11.770;2023-02-13T11:37:27;94966.78;;;16.63;40.00
59367;BME280;45163;47.690;11.770;2023-02-13T11:39:56;94959.47;;;17.18;39.54
59367;BME280;45163;47.690;11.770;2023-02-13T11:42:31;94960.09;;;17.10;39.44
59367;BME280;45163;47.690;11.770;2023-02-13T11:45:05;94958.84;;;17.95;37.75
59367;BME280;45163;47.690;11.770;2023-02-13T11:47:41;94967.81;;;17.44;39.15
59367;BME280;45163;47.690;11.770;2023-02-13T11:53:08;94953.41;;;16.95;37.10
59367;BME280;45163;47.690;11.770;2023-02-13T11:55:43;94968.69;;;17.54;38.04
59367;BME280;45163;47.690;11.770;2023-02-13T12:00:39;94962.97;;;17.61;39.00
59367;BME280;45163;47.690;11.770;2023-02-13T12:03:28;94967.84;;;16.04;39.85
59367;BME280;45163;47.690;11.770;2023-02-13T12:08:39;94955.75;;;17.38;38.88
59367;BME280;45163;47.690;11.770;2023-02-13T12:13:54;94951.66;;;17.42;40.05
59367;BME280;45163;47.690;11.770;2023-02-13T12:19:11;94949.63;;;18.36;37.97
59367;BME280;45163;47.690;11.770;2023-02-13T12:21:58;94938.78;;;17.52;39.03
59367;BME280;45163;47.690;11.770;2023-02-13T12:30:19;94945.03;;;16.36;44.96
59367;BME280;45163;47.690;11.770;2023-02-13T12:38:39;94942.00;;;17.76;41.71
59367;BME280;45163;47.690;11.770;2023-02-13T12:41:48;94935.47;;;19.47;36.21
59367;BME280;45163;47.690;11.770;2023-02-13T12:46:55;94937.91;;;18.32;40.49
59367;BME280;45163;47.690;11.770;2023-02-13T12:54:43;94932.03;;;18.42;40.34
59367;BME280;45163;47.690;11.770;2023-02-13T12:57:22;94927.63;;;18.32;39.79
59367;BME280;45163;47.690;11.770;2023-02-13T13:18:47;94919.56;;;18.12;42.15
59367;BME280;45163;47.690;11.770;2023-02-13T13:26:37;94913.88;;;19.86;36.70
59367;BME280;45163;47.690;11.770;2023-02-13T13:31:43;94911.94;;;17.65;39.90
59367;BME280;45163;47.690;11.770;2023-02-13T13:34:17;94911.47;;;17.41;41.48
59367;BME280;45163;47.690;11.770;2023-02-13T13:36:50;94915.34;;;18.33;38.99
59367;BME280;45163;47.690;11.770;2023-02-13T13:39:28;94917.13;;;17.63;40.76
59367;BME280;45163;47.690;11.770;2023-02-13T13:42:15;94908.31;;;17.56;42.21
59367;BME280;45163;47.690;11.770;2023-02-13T13:49:50;94902.88;;;17.39;42.19
59367;BME280;45163;47.690;11.770;2023-02-13T13:52:26;94898.56;;;16.97;43.37
59367;BME280;45163;47.690;11.770;2023-02-13T13:54:55;94900.44;;;16.25;44.84
59367;BME280;45163;47.690;11.770;2023-02-13T14:02:48;94896.41;;;15.81;46.68
59367;BME280;45163;47.690;11.770;2023-02-13T14:07:45;94892.25;;;15.00;49.46
59367;BME280;45163;47.690;11.770;2023-02-13T14:15:49;94907.34;;;13.55;58.57
59367;BME280;45163;47.690;11.770;2023-02-13T14:18:18;94898.06;;;13.45;58.80
59367;BME280;45163;47.690;11.770;2023-02-13T14:29:24;94896.16;;;12.02;71.31
59367;BME280;45163;47.690;11.770;2023-02-13T14:32:06;94894.44;;;11.07;81.59
59367;BME280;45163;47.690;11.770;2023-02-13T14:34:38;94894.28;;;10.59;87.82
59367;BME280;45163;47.690;11.770;2023-02-13T14:37:13;94892.47;;;9.88;93.49
59367;BME280;45163;47.690;11.770;2023-02-13T14:40:48;94896.34;;;10.05;95.91
59367;BME280;45163;47.690;11.770;2023-02-13T14:48:50;94903.34;;;9.52;100.00
59367;BME280;45163;47.690;11.770;2023-02-13T14:54:50;94909.03;;;8.79;100.00
59367;BME280;45163;47.690;11.770;2023-02-13T14:56:52;94913.03;;;9.03;100.00
59367;BME280;45163;47.690;11.770;2023-02-13T14:59:25;94902.44;;;8.80;100.00
59367;BME280;45163;47.690;11.770;2023-02-13T15:02:24;94914.94;;;8.99;100.00
59367;BME280;45163;47.690;11.770;2023-02-13T15:05:21;94917.09;;;8.51;100.00
59367;BME280;45163;47.690;11.770;2023-02-13T15:08:13;94910.50;;;8.55;100.00
59367;BME280;45163;47.690;11.770;2023-02-13T15:10:51;94915.13;;;8.51;100.00
59367;BME280;45163;47.690;11.770;2023-02-13T15:13:37;94923.41;;;8.10;100.00
59367;BME280;45163;47.690;11.770;2023-02-13T15:16:08;94926.47;;;8.02;100.00
59367;BME280;45163;47.690;11.770;2023-02-13T15:18:39;94930.28;;;7.86;100.00
59367;BME280;45163;47.690;11.770;2023-02-13T15:21:14;94929.72;;;7.26;100.00
59367;BME280;45163;47.690;11.770;2023-02-13T15:23:41;94924.09;;;7.04;100.00
59367;BME280;45163;47.690;11.770;2023-02-13T15:26:08;94934.25;;;6.77;100.00
59367;BME280;45163;47.690;11.770;2023-02-13T15:29:00;94931.78;;;6.35;100.00
59367;BME280;45163;47.690;11.770;2023-02-13T15:31:33;94948.72;;;5.98;100.00
59367;BME280;45163;47.690;11.770;2023-02-13T15:34:00;94939.84;;;5.78;100.00
59367;BME280;45163;47.690;11.770;2023-02-13T15:36:33;94948.59;;;5.45;100.00
59367;BME280;45163;47.690;11.770;2023-02-13T15:39:02;94950.31;;;5.11;100.00
59367;BME280;45163;47.690;11.770;2023-02-13T15:41:37;94950.81;;;4.97;100.00
59367;BME280;45163;47.690;11.770;2023-02-13T15:44:37;94952.28;;;4.91;100.00
59367;BME280;45163;47.690;11.770;2023-02-13T15:47:07;94960.81;;;4.73;100.00
59367;BME280;45163;47.690;11.770;2023-02-13T15:49:38;94953.47;;;4.55;100.00
59367;BME280;45163;47.690;11.770;2023-02-13T15:52:25;94966.66;;;4.56;100.00
59367;BME280;45163;47.690;11.770;2023-02-13T15:54:54;94961.81;;;4.46;100.00
59367;BME280;45163;47.690;11.770;2023-02-13T15:57:21;94961.06;;;4.30;100.00
59367;BME280;45163;47.690;11.770;2023-02-13T15:59:49;94960.00;;;4.15;100.00
59367;BME280;45163;47.690;11.770;2023-02-13T16:02:21;94962.81;;;4.03;100.00